Time;durP1;ratioP1;P1;durP2;ratioP2;P2;SDS_P1;SDS_P2;PMS_P1;PMS_P2;Temp;Humidity;BMP_temperature;BMP_pressure;BME280_temperature;BME280_humidity;BME280_pressure;Samples;Min_cycle;Max_cycle;Signal;HPM_P1;HPM_P2
2022/04/04 00:00:29;;;;;;;5.57;1.90;;;;;;;2.50;47.54;100079.47;2080825;28;20296;-77
2022/04/04 00:01:37;;;;;;;5.07;2.00;;;;;;;2.32;48.21;100076.47;2093965;27;20288;-75
2022/04/04 00:02:43;;;;;;;2.60;1.70;;;;;;;2.33;48.22;100078.06;2128324;27;20311;-74
2022/04/04 00:03:49;;;;;;;3.97;1.83;;;;;;;2.65;47.96;100073.38;2121945;27;20293;-74
2022/04/04 00:04:54;;;;;;;7.13;1.87;;;;;;;2.77;47.40;100074.97;2121688;27;20284;-75
2022/04/04 00:05:59;;;;;;;4.13;2.00;;;;;;;2.87;47.41;100066.97;2120709;28;20795;-75
2022/04/04 00:07:06;;;;;;;7.07;2.33;;;;;;;2.56;47.76;100061.59;2113435;28;20277;-74
2022/04/04 00:08:12;;;;;;;3.77;2.00;;;;;;;2.77;47.98;100053.59;2113755;28;20282;-74
2022/04/04 00:09:17;;;;;;;3.20;1.80;;;;;;;2.32;48.28;100055.09;2112727;28;20301;-74
2022/04/04 00:10:19;;;;;;;4.80;1.87;;;;;;;2.20;49.06;100058.00;2112854;28;20293;-75
2022/04/04 00:11:21;;;;;;;3.67;1.83;;;;;;;2.09;49.57;100049.16;2112971;28;20282;-74
2022/04/04 00:12:25;;;;;;;11.50;2.13;;;;;;;2.49;48.83;100053.00;2087721;28;20298;-74
2022/04/04 00:13:30;;;;;;;5.07;1.77;;;;;;;2.46;48.62;100056.19;2072504;28;20304;-75
2022/04/04 00:14:33;;;;;;;3.50;1.87;;;;;;;2.55;48.57;100057.28;2088312;28;20291;-75
2022/04/04 00:15:36;;;;;;;5.13;1.73;;;;;;;2.19;49.55;100046.53;2104334;28;20286;-74
2022/04/04 00:16:40;;;;;;;6.63;2.17;;;;;;;2.43;48.71;100043.38;2112980;28;20284;-74
2022/04/04 00:17:50;;;;;;;5.53;2.00;;;;;;;2.16;49.58;100049.72;2110408;28;20697;-76
2022/04/04 00:18:55;;;;;;;3.60;1.93;;;;;;;2.31;49.03;100046.28;2103970;28;20298;-75
2022/04/04 00:19:57;;;;;;;7.77;2.20;;;;;;;2.42;48.88;100049.78;2095669;28;20307;-75
2022/04/04 00:21:04;;;;;;;5.10;2.20;;;;;;;2.53;48.25;100045.28;2087942;28;20307;-75
2022/04/04 00:22:09;;;;;;;3.90;1.80;;;;;;;2.62;48.03;100047.19;2097265;28;20306;-76
2022/04/04 00:23:14;;;;;;;4.43;2.20;;;;;;;2.41;48.94;100048.19;2087468;28;20432;-75
2022/04/04 00:24:19;;;;;;;3.90;2.27;;;;;;;2.48;48.52;100043.41;2097101;28;20286;-76
2022/04/04 00:25:24;;;;;;;4.37;2.10;;;;;;;2.64;48.25;100047.69;2106959;28;20286;-76
2022/04/04 00:26:30;;;;;;;2.87;1.90;;;;;;;2.29;48.64;100051.09;2113015;28;20289;-75
2022/04/04 00:27:35;;;;;;;4.70;2.23;;;;;;;2.27;49.51;100045.19;2111764;28;20292;-75
2022/04/04 00:28:38;;;;;;;7.13;2.50;;;;;;;2.55;48.97;100043.94;2112053;28;20785;-75
2022/04/04 00:29:44;;;;;;;7.07;2.40;;;;;;;2.53;48.49;100047.97;2113083;28;20595;-76
2022/04/04 00:30:48;;;;;;;7.30;2.50;;;;;;;2.64;48.85;100039.69;2103376;28;20270;-76
2022/04/04 00:31:50;;;;;;;4.07;2.10;;;;;;;2.90;47.80;100037.03;2088597;28;20298;-76
2022/04/04 00:32:52;;;;;;;4.47;2.30;;;;;;;2.57;48.41;100036.47;2071888;28;20301;-76
2022/04/04 00:33:55;;;;;;;5.27;2.27;;;;;;;2.29;48.97;100028.94;2079911;28;20664;-76
2022/04/04 00:34:57;;;;;;;7.77;2.50;;;;;;;2.79;47.88;100024.75;2096241;28;20291;-76
2022/04/04 00:36:00;;;;;;;6.83;2.10;;;;;;;3.00;47.72;100030.88;2104048;28;20670;-76
2022/04/04 00:37:05;;;;;;;4.53;2.00;;;;;;;2.90;47.55;100032.53;2112838;28;20298;-76
2022/04/04 00:38:10;;;;;;;4.13;2.20;;;;;;;2.68;48.06;100027.41;2112476;28;20294;-76
2022/04/04 00:39:19;;;;;;;5.27;2.43;;;;;;;2.78;48.39;100021.28;2096451;28;20283;-76
2022/04/04 00:40:21;;;;;;;4.53;1.90;;;;;;;2.76;48.38;100020.75;2088663;28;20679;-75
2022/04/04 00:41:24;;;;;;;5.00;2.33;;;;;;;2.91;47.91;100025.28;2088921;28;20540;-76
2022/04/04 00:42:26;;;;;;;11.93;2.40;;;;;;;2.71;48.78;100016.22;2087332;28;20288;-76
2022/04/04 00:43:28;;;;;;;4.30;1.83;;;;;;;2.72;48.44;100022.34;2088556;28;20306;-75
2022/04/04 00:44:30;;;;;;;5.93;2.20;;;;;;;2.43;49.24;100022.00;2101974;28;20274;-73
2022/04/04 00:45:32;;;;;;;4.20;2.00;;;;;;;2.57;49.19;100012.44;2087687;28;20299;-74
2022/04/04 00:46:41;;;;;;;4.53;1.87;;;;;;;2.62;48.98;100014.28;2092118;28;20279;-73
2022/04/04 00:47:43;;;;;;;4.03;2.10;;;;;;;2.78;48.93;100018.63;2108437;28;20506;-73
2022/04/04 00:48:47;;;;;;;6.57;2.00;;;;;;;2.88;48.72;100020.47;2098309;28;20275;-73
2022/04/04 00:49:52;;;;;;;6.73;1.77;;;;;;;2.84;48.68;100019.41;2091146;28;20338;-72
2022/04/04 00:50:54;;;;;;;4.53;1.80;;;;;;;3.04;48.30;100029.31;2098441;28;20829;-72
2022/04/04 00:51:57;;;;;;;5.30;1.60;;;;;;;2.78;48.39;100023.13;2092614;28;20288;-74
2022/04/04 00:53:01;;;;;;;2.87;1.60;;;;;;;3.05;48.38;100023.69;2089923;28;20299;-73
2022/04/04 00:54:05;;;;;;;4.47;1.73;;;;;;;3.16;47.90;100027.97;2091058;28;20287;-74
2022/04/04 00:55:10;;;;;;;2.93;2.03;;;;;;;3.20;47.80;100025.53;2090074;28;20833;-75
2022/04/04 00:56:16;;;;;;;3.23;1.87;;;;;;;3.29;47.97;100031.16;2083193;28;20351;-75
2022/04/04 00:57:19;;;;;;;2.55;1.60;;;;;;;3.10;48.60;100029.03;2097890;28;20286;-75
2022/04/04 00:58:23;;;;;;;5.17;2.07;;;;;;;3.04;48.23;100023.97;2097143;28;20349;-75
2022/04/04 00:59:34;;;;;;;8.10;4.00;;;;;;;2.96;48.97;100025.28;2099808;28;20282;-74
2022/04/04 01:00:38;;;;;;;7.70;4.37;;;;;;;2.48;51.38;100033.50;2106862;28;20274;-75
2022/04/04 01:01:44;;;;;;;9.00;5.10;;;;;;;2.42;52.70;100012.41;2106766;28;20290;-75
2022/04/04 01:02:49;;;;;;;7.10;4.80;;;;;;;2.02;55.05;100024.56;2106567;28;20282;-74
2022/04/04 01:03:54;;;;;;;9.67;5.13;;;;;;;2.25;55.43;100024.13;2107489;28;20289;-76
2022/04/04 01:05:04;;;;;;;10.30;4.73;;;;;;;2.22;56.31;100024.63;2107300;28;20305;-77
2022/04/04 01:06:12;;;;;;;10.30;3.10;;;;;;;2.26;56.37;100011.56;2107764;28;20278;-78
2022/04/04 01:07:15;;;;;;;6.73;2.80;;;;;;;2.22;56.86;100013.97;2106273;28;20048;-78
2022/04/04 01:08:21;;;;;;;4.47;2.10;;;;;;;2.35;56.79;100025.22;2091981;28;20767;-78
2022/04/04 01:09:23;;;;;;;4.80;2.10;;;;;;;2.35;56.30;100015.31;2081921;28;20593;-78
2022/04/04 01:12:09;;;;;;;4.93;2.10;;;;;;;3.11;54.15;100006.56;2122239;27;20126;-79
2022/04/04 01:13:12;;;;;;;3.80;1.90;;;;;;;3.02;54.38;100008.19;2110810;28;20286;-79
2022/04/04 01:14:14;;;;;;;6.93;1.80;;;;;;;3.26;54.25;100005.75;2104418;28;20631;-82
2022/04/04 01:15:15;;;;;;;3.47;1.77;;;;;;;3.42;53.98;100003.84;2096387;28;20302;-80
2022/04/04 01:16:20;;;;;;;2.47;1.80;;;;;;;3.51;53.58;99996.88;2097049;28;20838;-79
2022/04/04 01:17:25;;;;;;;3.70;2.10;;;;;;;3.25;53.95;99993.47;2104708;28;20289;-79
2022/04/04 01:18:29;;;;;;;2.40;1.50;;;;;;;2.88;54.91;100002.56;2089006;28;20276;-77
2022/04/04 01:19:32;;;;;;;4.47;1.87;;;;;;;2.85;54.97;99999.63;2087309;28;20280;-80
2022/04/04 01:20:38;;;;;;;2.50;1.73;;;;;;;3.06;55.00;99989.72;2096214;28;20286;-80
2022/04/04 01:21:39;;;;;;;5.67;1.83;;;;;;;3.27;54.72;99988.63;2104566;28;20290;-80
2022/04/04 01:23:06;;;;;;;2.93;1.50;;;;;;;3.05;54.71;99982.78;2088881;28;20771;-79
2022/04/04 01:24:20;;;;;;;3.93;1.70;;;;;;;3.04;55.15;99987.34;2087102;28;20275;-78
2022/04/04 01:25:25;;;;;;;2.80;1.53;;;;;;;3.21;54.71;99979.00;2086725;28;20291;-77
2022/04/04 01:26:27;;;;;;;4.07;1.70;;;;;;;3.00;55.33;99986.28;2097370;28;20283;-80
2022/04/04 01:27:32;;;;;;;4.93;1.70;;;;;;;3.07;55.43;99970.75;2096669;28;20667;-74
2022/04/04 01:30:29;;;;;;;4.70;1.93;;;;;;;2.64;56.99;99978.25;2121908;27;20321;-73
2022/04/04 01:31:32;;;;;;;1.77;1.50;;;;;;;2.87;56.13;99970.75;2121832;28;20273;-74
2022/04/04 01:32:35;;;;;;;2.95;1.70;;;;;;;3.16;55.19;99963.78;2128594;27;20393;-74
2022/04/04 01:33:37;;;;;;;2.30;1.60;;;;;;;3.31;54.49;99967.50;2102191;28;20290;-74
2022/04/04 01:34:41;;;;;;;6.65;1.65;;;;;;;3.10;55.71;99962.19;2088588;28;20302;-74
2022/04/04 01:35:52;;;;;;;4.40;1.60;;;;;;;3.06;55.40;99963.81;2103908;28;20286;-74
2022/04/04 01:36:55;;;;;;;9.97;1.50;;;;;;;3.05;55.32;99956.84;2097122;28;20290;-74
2022/04/04 01:37:57;;;;;;;2.10;1.47;;;;;;;3.28;54.85;99954.66;2088811;28;20276;-74
2022/04/04 01:38:59;;;;;;;2.83;1.90;;;;;;;3.18;55.12;99958.16;2095878;28;20290;-74
2022/04/04 01:41:05;;;;;;;4.03;1.53;;;;;;;3.14;55.24;99955.25;2122038;27;20127;-72
2022/04/04 01:42:08;;;;;;;1.50;1.23;;;;;;;2.72;56.26;99952.88;2104161;28;20309;-74
2022/04/04 01:43:13;;;;;;;4.10;1.57;;;;;;;2.73;56.87;99951.81;2097127;28;20295;-74
2022/04/04 01:44:20;;;;;;;;;;;;;;;3.12;55.55;99951.22;2114420;28;20653;-74
2022/04/04 01:46:45;;;;;;;2.30;1.37;;;;;;;2.88;56.29;99943.00;2106747;28;20728;-72
2022/04/04 01:47:51;;;;;;;3.33;1.50;;;;;;;2.83;56.67;99942.97;2109874;28;20349;-73
2022/04/04 01:48:58;;;;;;;;;;;;;;;2.98;56.70;99945.63;2112941;28;20285;-73
2022/04/04 01:50:00;;;;;;;2.97;1.47;;;;;;;2.89;56.40;99936.56;2094856;28;19912;-73
2022/04/04 01:51:02;;;;;;;2.77;1.60;;;;;;;2.65;57.07;99931.78;2088101;28;20284;-74
2022/04/04 01:52:05;;;;;;;3.07;1.50;;;;;;;2.66;57.56;99945.94;2096166;28;20295;-74
2022/04/04 01:53:29;;;;;;;1.97;1.50;;;;;;;2.71;57.45;99941.41;2096579;28;20814;-74
2022/04/04 01:54:31;;;;;;;1.50;1.20;;;;;;;3.21;56.56;99933.56;2096294;28;20295;-73
2022/04/04 01:55:41;;;;;;;;;;;;;;;2.80;57.59;99922.94;2106656;28;20278;-74
2022/04/04 01:56:47;;;;;;;2.47;1.40;;;;;;;2.78;57.96;99918.94;2112577;28;19927;-74
2022/04/04 01:57:52;;;;;;;3.47;1.40;;;;;;;3.09;56.77;99919.69;2113412;28;20288;-74
2022/04/04 01:58:59;;;;;;;2.87;1.20;;;;;;;2.98;57.11;99921.59;2121475;28;20269;-72
2022/04/04 02:00:03;;;;;;;2.57;1.50;;;;;;;2.88;57.44;99908.25;2120583;28;20289;-72
2022/04/04 02:01:22;;;;;;;2.87;1.50;;;;;;;2.96;57.71;99911.16;2112357;28;20282;-75
2022/04/04 02:02:26;;;;;;;2.40;1.57;;;;;;;2.96;57.29;99915.69;2112489;28;20294;-74
2022/04/04 02:03:56;;;;;;;2.73;1.40;;;;;;;3.08;57.06;99908.19;2113400;27;20330;-74
2022/04/04 02:04:59;;;;;;;2.17;1.33;;;;;;;2.88;57.67;99908.25;2113061;28;20292;-73
2022/04/04 02:06:02;;;;;;;2.00;1.30;;;;;;;2.57;59.00;99912.81;2104660;28;20298;-73
2022/04/04 02:07:07;;;;;;;1.63;1.37;;;;;;;2.94;57.63;99909.84;2104971;28;20285;-74
2022/04/04 02:08:10;;;;;;;3.00;1.60;;;;;;;2.93;57.79;99905.56;2104130;28;20282;-73
2022/04/04 02:09:12;;;;;;;4.23;1.83;;;;;;;2.73;58.31;99904.50;2104842;28;20286;-73
2022/04/04 02:10:15;;;;;;;1.67;1.20;;;;;;;2.68;59.06;99899.19;2104046;28;20864;-73
2022/04/04 02:11:24;;;;;;;2.30;1.50;;;;;;;2.71;58.78;99900.50;2080007;28;20296;-73
2022/04/04 02:12:26;;;;;;;4.93;1.55;;;;;;;2.69;58.91;99900.00;2084275;28;20284;-74
2022/04/04 02:13:35;;;;;;;5.17;2.03;;;;;;;2.95;58.10;99898.06;2096662;28;20040;-73
2022/04/04 02:14:37;;;;;;;2.00;1.40;;;;;;;2.61;59.11;99893.31;2097879;28;20286;-73
2022/04/04 02:15:41;;;;;;;1.70;1.40;;;;;;;2.82;59.29;99898.63;2096096;28;20294;-74
2022/04/04 02:16:45;;;;;;;3.13;1.30;;;;;;;2.81;59.11;99894.34;2080746;28;20284;-73
2022/04/04 02:17:48;;;;;;;1.73;1.40;;;;;;;2.70;58.81;99899.72;2101542;28;20278;-73
2022/04/04 02:18:51;;;;;;;2.90;1.40;;;;;;;2.86;58.67;99894.34;2096088;28;20279;-73
2022/04/04 02:19:57;;;;;;;3.17;1.60;;;;;;;2.61;60.00;99882.63;2099191;28;20294;-73
2022/04/04 02:21:05;;;;;;;1.70;1.50;;;;;;;2.67;59.67;99884.22;2111005;28;20317;-74
2022/04/04 02:22:10;;;;;;;3.80;1.53;;;;;;;2.74;59.51;99887.41;2098452;28;20282;-73
2022/04/04 02:24:06;;;;;;;2.40;1.40;;;;;;;3.10;58.54;99887.34;2105169;28;20413;-74
2022/04/04 02:25:13;;;;;;;4.83;1.50;;;;;;;2.88;59.38;99886.88;2104688;28;20301;-74
2022/04/04 02:26:16;;;;;;;2.37;1.30;;;;;;;2.69;59.67;99890.09;2105024;28;20278;-73
2022/04/04 02:27:23;;;;;;;1.90;1.47;;;;;;;2.50;60.31;99881.84;2104624;28;20302;-74
2022/04/04 02:28:28;;;;;;;2.83;1.80;;;;;;;2.55;60.53;99889.03;2096223;28;20290;-73
2022/04/04 02:30:33;;;;;;;3.10;1.40;;;;;;;2.26;61.17;99881.56;2113604;27;20925;-74
2022/04/04 02:31:35;;;;;;;3.43;1.80;;;;;;;2.47;61.29;99887.72;2113243;28;20285;-73
2022/04/04 02:33:52;;;;;;;3.47;1.60;;;;;;;2.61;60.56;99871.13;2113881;27;20116;-73
2022/04/04 02:34:59;;;;;;;2.53;1.52;;;;;;;2.92;60.29;99874.56;2113064;28;20274;-72
2022/04/04 02:36:04;;;;;;;3.33;1.40;;;;;;;2.94;59.46;99881.25;2105747;28;20360;-72
2022/04/04 02:37:09;;;;;;;2.17;1.73;;;;;;;2.83;60.33;99873.50;2096392;28;20290;-73
2022/04/04 02:38:11;;;;;;;5.30;1.80;;;;;;;3.13;59.92;99867.31;2096307;28;20759;-71
2022/04/04 02:39:15;;;;;;;2.23;1.30;;;;;;;2.88;60.16;99865.50;2096224;28;20650;-72
2022/04/04 02:40:17;;;;;;;5.87;1.63;;;;;;;3.01;59.48;99864.13;2096243;28;20286;-72
2022/04/04 02:41:23;;;;;;;3.37;1.83;;;;;;;2.88;60.32;99868.16;2095348;28;20940;-72
2022/04/04 02:42:26;;;;;;;4.23;1.70;;;;;;;3.14;59.12;99869.69;2088937;28;20366;-72
2022/04/04 02:43:29;;;;;;;2.93;1.63;;;;;;;2.80;59.68;99864.16;2080520;28;20292;-73
2022/04/04 02:44:35;;;;;;;3.07;1.77;;;;;;;2.97;59.49;99858.53;2096344;28;20279;-73
2022/04/04 02:45:37;;;;;;;3.70;1.77;;;;;;;3.08;59.75;99859.28;2096860;28;20290;-72
2022/04/04 02:46:40;;;;;;;4.67;2.07;;;;;;;3.24;59.09;99858.16;2096428;28;20682;-72
2022/04/04 02:47:45;;;;;;;4.37;1.90;;;;;;;3.01;59.44;99856.91;2095724;28;20310;-72
2022/04/04 02:48:46;;;;;;;2.40;1.53;;;;;;;2.91;59.74;99857.72;2096797;28;20291;-72
2022/04/04 02:49:48;;;;;;;3.03;1.57;;;;;;;3.04;59.52;99864.38;2087946;28;20288;-72
2022/04/04 02:50:54;;;;;;;4.00;2.00;;;;;;;3.10;60.11;99857.94;2094586;28;20295;-72
2022/04/04 02:51:58;;;;;;;2.33;1.60;;;;;;;3.13;59.95;99854.72;2106634;28;20286;-72
2022/04/04 02:53:04;;;;;;;4.63;2.00;;;;;;;3.06;59.48;99850.72;2105223;28;20293;-72
2022/04/04 02:54:06;;;;;;;4.13;1.90;;;;;;;2.89;60.15;99859.06;2104109;28;20372;-72
2022/04/04 02:56:32;;;;;;;3.40;1.83;;;;;;;2.70;61.22;99846.28;2099121;28;20286;-72
2022/04/04 02:57:38;;;;;;;4.00;1.57;;;;;;;2.59;61.52;99852.72;2087654;28;20291;-73
2022/04/04 02:58:41;;;;;;;2.77;1.70;;;;;;;2.57;61.29;99860.19;2089807;28;20677;-72
2022/04/04 02:59:44;;;;;;;4.47;1.70;;;;;;;2.62;61.68;99851.34;2087653;28;20409;-73
2022/04/04 03:00:51;;;;;;;3.53;1.77;;;;;;;2.40;61.67;99848.97;2089449;28;20279;-72
2022/04/04 03:01:56;;;;;;;3.80;2.10;;;;;;;2.35;62.15;99846.31;2104813;28;20286;-74
2022/04/04 03:02:58;;;;;;;3.73;1.53;;;;;;;2.56;62.19;99857.78;2095446;28;20294;-74
2022/04/04 03:04:04;;;;;;;3.23;1.90;;;;;;;2.55;61.66;99851.63;2096635;28;20671;-71
2022/04/04 03:05:06;;;;;;;6.03;2.10;;;;;;;2.71;62.11;99845.22;2104092;28;20297;-71
2022/04/04 03:06:11;;;;;;;2.83;1.70;;;;;;;2.78;61.26;99847.63;2079778;28;20281;-73
2022/04/04 03:07:16;;;;;;;4.85;1.63;;;;;;;2.66;61.51;99853.25;2072621;28;20296;-73
2022/04/04 03:08:19;;;;;;;4.53;2.20;;;;;;;2.87;61.20;99848.66;2089229;28;20311;-74
2022/04/04 03:09:24;;;;;;;5.53;1.80;;;;;;;3.01;60.93;99846.22;2112251;28;20888;-72
2022/04/04 03:12:10;;;;;;;3.40;2.00;;;;;;;2.67;61.50;99838.81;2088556;28;20736;-74
2022/04/04 03:13:13;;;;;;;3.77;1.77;;;;;;;2.62;61.66;99841.50;2087497;28;20291;-73
2022/04/04 03:14:17;;;;;;;4.37;2.00;;;;;;;2.54;62.48;99834.03;2087794;28;20295;-73
2022/04/04 03:15:22;;;;;;;1.93;1.50;;;;;;;2.58;62.09;99835.06;2079718;28;20307;-74
2022/04/04 03:16:24;;;;;;;4.07;1.93;;;;;;;2.65;62.44;99827.59;2078856;28;20292;-73
2022/04/04 03:17:28;;;;;;;4.63;2.00;;;;;;;2.77;61.91;99831.84;2079890;28;20300;-72
2022/04/04 03:18:33;;;;;;;4.07;1.97;;;;;;;2.86;61.45;99835.56;2085267;28;20299;-72
2022/04/04 03:20:59;;;;;;;7.13;1.87;;;;;;;2.64;61.90;99833.19;2122095;27;20485;-73
2022/04/04 03:22:03;;;;;;;3.13;2.10;;;;;;;2.79;62.04;99829.72;2104581;28;20286;-73
2022/04/04 03:23:06;;;;;;;4.53;1.63;;;;;;;2.66;62.37;99828.41;2113924;27;20297;-72
2022/04/04 03:25:03;;;;;;;3.27;2.27;;;;;;;2.87;62.08;99829.97;2121957;27;20597;-73
2022/04/04 03:26:05;;;;;;;3.07;1.63;;;;;;;2.76;61.91;99825.69;2122231;28;20261;-73
2022/04/04 03:27:07;;;;;;;4.27;1.57;;;;;;;2.75;61.92;99829.44;2104434;28;20282;-73
2022/04/04 03:28:08;;;;;;;5.17;1.70;;;;;;;2.70;61.62;99824.91;2096550;28;20342;-73
2022/04/04 03:29:10;;;;;;;2.40;1.50;;;;;;;2.46;62.85;99824.69;2079834;28;20642;-73
2022/04/04 03:30:20;;;;;;;2.63;1.37;;;;;;;2.48;62.35;99822.53;2081348;28;20806;-73
2022/04/04 03:31:28;;;;;;;3.50;1.40;;;;;;;2.34;63.54;99823.38;2100409;28;20785;-71
2022/04/04 03:32:33;;;;;;;2.63;1.60;;;;;;;2.60;62.82;99811.56;2104812;28;20299;-72
2022/04/04 03:33:36;;;;;;;1.67;1.40;;;;;;;2.65;61.87;99814.25;2097585;28;20295;-72
2022/04/04 03:37:16;;;;;;;2.10;1.83;;;;;;;2.83;61.48;99812.06;2113720;27;20388;-73
2022/04/04 03:38:20;;;;;;;2.53;1.60;;;;;;;2.59;62.02;99812.66;2112619;28;20278;-73
2022/04/04 03:39:29;;;;;;;1.90;1.70;;;;;;;2.55;62.98;99808.91;2105208;28;20817;-73
2022/04/04 03:40:36;;;;;;;3.00;1.80;;;;;;;2.66;62.44;99810.50;2108144;28;20301;-74
2022/04/04 03:41:45;;;;;;;2.07;1.50;;;;;;;2.94;61.81;99800.28;2104798;28;20294;-73
2022/04/04 03:42:53;;;;;;;5.23;1.83;;;;;;;2.74;62.00;99798.44;2104627;28;20321;-73
2022/04/04 03:43:56;;;;;;;2.40;1.57;;;;;;;2.82;61.85;99799.78;2104980;28;20291;-73
2022/04/04 03:45:00;;;;;;;3.10;1.80;;;;;;;2.63;61.92;99787.00;2096105;28;20306;-73
2022/04/04 03:46:05;;;;;;;1.87;1.47;;;;;;;2.64;61.80;99791.25;2087403;28;20299;-73
2022/04/04 03:47:07;;;;;;;5.17;1.60;;;;;;;2.70;62.07;99792.84;2092796;28;20291;-74
2022/04/04 03:48:12;;;;;;;2.37;1.80;;;;;;;2.64;61.66;99791.25;2082024;28;20291;-72
2022/04/04 03:49:17;;;;;;;3.57;1.90;;;;;;;2.64;62.33;99791.25;2082964;28;20296;-74
2022/04/04 03:50:22;;;;;;;3.50;1.77;;;;;;;2.84;61.52;99784.25;2104231;28;20294;-73
2022/04/04 03:51:24;;;;;;;3.90;1.80;;;;;;;2.75;61.59;99778.69;2104494;28;20293;-73
2022/04/04 03:52:27;;;;;;;2.53;1.50;;;;;;;2.46;62.59;99781.97;2095576;28;20287;-73
2022/04/04 03:53:29;;;;;;;2.20;1.43;;;;;;;2.57;62.70;99780.06;2096243;28;20306;-73
2022/04/04 03:54:37;;;;;;;2.30;1.77;;;;;;;2.58;62.05;99772.84;2096420;28;20309;-73
2022/04/04 03:55:42;;;;;;;1.90;1.50;;;;;;;2.43;62.66;99774.50;2104698;28;20301;-73
2022/04/04 03:56:45;;;;;;;2.47;1.80;;;;;;;2.62;61.93;99771.22;2104828;28;20834;-72
2022/04/04 03:57:49;;;;;;;4.07;1.70;;;;;;;2.53;62.62;99773.69;2095822;28;20627;-74
2022/04/04 03:58:54;;;;;;;6.57;2.03;;;;;;;2.57;62.39;99772.06;2088221;28;20683;-73
2022/04/04 04:00:01;;;;;;;2.63;1.73;;;;;;;2.57;62.61;99764.03;2080388;28;20666;-72
2022/04/04 04:01:09;;;;;;;2.25;1.60;;;;;;;2.58;62.26;99757.63;2102863;28;20290;-71
2022/04/04 04:02:14;;;;;;;2.10;1.70;;;;;;;2.57;62.38;99764.03;2120651;28;20050;-73
2022/04/04 04:03:25;;;;;;;3.37;1.57;;;;;;;2.49;62.08;99768.06;2105257;28;20282;-74
2022/04/04 04:04:29;;;;;;;2.63;1.57;;;;;;;2.74;61.62;99767.19;2105219;28;20650;-73
2022/04/04 04:05:32;;;;;;;2.87;1.40;;;;;;;3.04;61.04;99762.81;2104273;28;20309;-73
2022/04/04 04:06:39;;;;;;;2.97;1.70;;;;;;;3.13;60.46;99766.50;2105369;28;20777;-72
2022/04/04 04:07:42;;;;;;;3.87;1.83;;;;;;;3.07;60.23;99751.56;2096199;28;20791;-72
2022/04/04 04:08:47;;;;;;;2.73;1.70;;;;;;;2.99;60.90;99760.16;2088868;28;20295;-73
2022/04/04 04:09:49;;;;;;;2.33;1.60;;;;;;;2.85;60.68;99761.81;2101530;28;20342;-71
2022/04/04 04:10:55;;;;;;;2.03;1.20;;;;;;;2.73;61.09;99752.22;2103847;28;20285;-71
2022/04/04 04:12:00;;;;;;;3.90;1.60;;;;;;;2.50;61.89;99758.97;2087996;28;20292;-74
2022/04/04 04:13:05;;;;;;;4.20;1.77;;;;;;;2.60;61.64;99755.47;2094495;28;20283;-73
2022/04/04 04:14:10;;;;;;;1.97;1.40;;;;;;;2.78;61.16;99762.13;2109746;28;20804;-72
2022/04/04 04:15:18;;;;;;;5.87;1.90;;;;;;;2.42;62.10;99746.16;2103600;28;20965;-72
2022/04/04 04:16:23;;;;;;;3.80;1.60;;;;;;;2.44;62.22;99754.72;2096717;28;20271;-72
2022/04/04 04:17:25;;;;;;;5.57;1.97;;;;;;;2.45;61.99;99747.50;2096214;28;20294;-73
2022/04/04 04:18:33;;;;;;;3.53;2.00;;;;;;;2.74;61.66;99742.34;2095969;28;20279;-72
2022/04/04 04:21:04;;;;;;;4.67;2.23;;;;;;;2.53;62.03;99744.28;2089176;28;20297;-80
2022/04/04 04:22:06;;;;;;;2.83;1.63;;;;;;;2.58;61.85;99748.81;2103795;28;20278;-80
2022/04/04 04:23:08;;;;;;;2.83;1.30;;;;;;;2.59;61.89;99739.72;2096406;28;20283;-82
2022/04/04 04:24:16;;;;;;;2.43;1.40;;;;;;;2.58;62.11;99738.91;2104124;28;20289;-81
2022/04/04 04:25:19;;;;;;;2.37;1.50;;;;;;;2.44;61.99;99736.03;2095908;28;20287;-80
2022/04/04 04:26:25;;;;;;;9.30;1.97;;;;;;;2.57;61.92;99731.19;2096667;28;20291;-80
2022/04/04 04:27:27;;;;;;;3.67;1.90;;;;;;;2.39;62.05;99732.56;2104615;28;20278;-83
2022/04/04 04:28:34;;;;;;;2.23;1.60;;;;;;;2.74;61.61;99735.13;2095408;28;20295;-89
2022/04/04 04:29:37;;;;;;;1.93;1.40;;;;;;;2.64;61.72;99727.16;2082082;28;20291;-84
2022/04/04 04:30:41;;;;;;;2.90;1.73;;;;;;;2.61;61.41;99727.69;2095908;28;20295;-83
2022/04/04 04:31:47;;;;;;;3.43;1.83;;;;;;;2.83;61.06;99729.22;2070157;28;20300;-81
2022/04/04 04:32:53;;;;;;;1.73;1.50;;;;;;;2.59;61.64;99719.19;2072412;28;20281;-80
2022/04/04 04:33:54;;;;;;;2.50;1.50;;;;;;;2.48;62.19;99730.94;2094433;28;20302;-81
2022/04/04 04:34:57;;;;;;;3.20;1.40;;;;;;;2.79;62.13;99712.94;2078818;28;20288;-79
2022/04/04 04:36:00;;;;;;;3.07;1.77;;;;;;;2.68;61.81;99711.38;2070934;28;20292;-80
2022/04/04 04:37:04;;;;;;;3.53;1.60;;;;;;;2.70;61.68;99715.38;2085038;28;20300;-83
2022/04/04 04:38:05;;;;;;;3.13;1.63;;;;;;;2.59;61.58;99703.16;2095211;28;20283;-78
2022/04/04 04:39:10;;;;;;;3.83;1.58;;;;;;;2.63;61.85;99704.19;2102609;28;20352;-78
2022/04/04 04:40:14;;;;;;;1.97;1.50;;;;;;;2.61;61.59;99711.66;2093988;28;20292;-79
2022/04/04 04:41:17;;;;;;;3.97;1.40;;;;;;;2.53;62.32;99704.25;2078565;28;20289;-79
2022/04/04 04:42:22;;;;;;;1.80;1.60;;;;;;;2.30;62.69;99708.28;2074332;28;21045;-89
2022/04/04 04:43:25;;;;;;;3.83;1.40;;;;;;;2.39;62.40;99709.34;2095264;28;20294;-78
2022/04/04 04:44:28;;;;;;;1.30;1.20;;;;;;;2.45;62.40;99702.13;2095806;28;20342;-78
2022/04/04 04:45:36;;;;;;;1.80;1.57;;;;;;;2.49;62.56;99704.00;2094472;28;20287;-84
2022/04/04 04:46:43;;;;;;;3.63;1.30;;;;;;;2.61;62.47;99706.31;2088502;28;20374;-84
2022/04/04 04:47:47;;;;;;;2.90;1.63;;;;;;;2.35;62.70;99710.16;2079674;28;20315;-80
2022/04/04 04:48:49;;;;;;;4.03;1.93;;;;;;;2.45;62.65;99713.59;2080803;28;20296;-79
2022/04/04 04:49:54;;;;;;;4.27;1.67;;;;;;;2.72;61.99;99693.75;2089036;28;20314;-87
2022/04/04 04:51:00;;;;;;;4.13;1.30;;;;;;;2.61;61.76;99692.97;2080718;28;20304;-77
2022/04/04 04:52:06;;;;;;;4.47;1.50;;;;;;;2.79;62.12;99691.56;2078759;28;20288;-72
2022/04/04 04:53:10;;;;;;;3.50;1.33;;;;;;;2.70;62.04;99693.22;2096800;28;20290;-67
2022/04/04 04:54:16;;;;;;;1.83;1.10;;;;;;;2.52;62.31;99691.94;2097764;28;20302;-68
2022/04/04 04:55:19;;;;;;;1.97;1.40;;;;;;;2.32;62.28;99697.34;2087916;28;20291;-74
2022/04/04 04:56:25;;;;;;;2.13;1.50;;;;;;;2.41;62.88;99695.72;2088676;28;20283;-68
2022/04/04 04:57:31;;;;;;;3.57;1.20;;;;;;;2.52;62.43;99691.94;2104057;28;20293;-67
2022/04/04 04:58:33;;;;;;;1.93;1.27;;;;;;;2.65;62.31;99687.88;2105376;28;20290;-69
2022/04/04 04:59:40;;;;;;;2.80;1.30;;;;;;;2.60;61.65;99696.72;2097101;28;20679;-67
2022/04/04 05:00:46;;;;;;;2.10;1.40;;;;;;;2.65;61.44;99691.38;2098438;28;20323;-68
2022/04/04 05:01:51;;;;;;;1.40;1.20;;;;;;;2.71;61.86;99695.63;2094080;28;20284;-70
2022/04/04 05:04:20;;;;;;;1.67;1.40;;;;;;;2.84;60.96;99696.06;2096539;28;20286;-69
2022/04/04 05:05:25;;;;;;;2.50;1.33;;;;;;;2.83;61.04;99681.94;2096491;28;20275;-69
2022/04/04 05:06:34;;;;;;;4.60;1.73;;;;;;;2.60;61.75;99688.72;2096671;28;20302;-69
2022/04/04 05:07:37;;;;;;;5.40;1.87;;;;;;;2.61;62.55;99684.16;2089746;28;20291;-68
2022/04/04 05:08:45;;;;;;;6.07;1.50;;;;;;;2.59;62.03;99686.31;2096784;28;20278;-68
2022/04/04 05:09:47;;;;;;;1.83;1.33;;;;;;;2.69;62.43;99681.72;2096583;28;20329;-67
2022/04/04 05:10:52;;;;;;;2.20;1.40;;;;;;;2.74;62.13;99684.38;2088434;28;20290;-67
2022/04/04 05:11:58;;;;;;;4.87;1.77;;;;;;;2.85;62.12;99679.00;2089289;28;20291;-68
2022/04/04 05:13:02;;;;;;;2.67;1.57;;;;;;;2.67;62.53;99683.88;2089397;28;20288;-68
2022/04/04 05:14:07;;;;;;;1.83;1.07;;;;;;;2.36;62.50;99685.84;2096809;28;20290;-68
2022/04/04 05:15:12;;;;;;;4.23;1.40;;;;;;;2.55;62.54;99679.91;2095605;28;20882;-68
2022/04/04 05:16:17;;;;;;;2.23;1.40;;;;;;;2.31;62.56;99677.88;2089428;28;20322;-68
2022/04/04 05:17:19;;;;;;;2.27;1.37;;;;;;;2.30;63.17;99684.25;2096141;28;20299;-69
2022/04/04 05:18:22;;;;;;;2.37;1.50;;;;;;;2.56;62.90;99687.66;2089427;28;20307;-69
2022/04/04 05:19:25;;;;;;;2.10;1.30;;;;;;;2.44;62.63;99682.63;2087766;28;20290;-68
2022/04/04 05:20:28;;;;;;;1.70;1.10;;;;;;;2.32;62.65;99686.69;2089061;28;20295;-68
2022/04/04 05:21:34;;;;;;;4.30;1.47;;;;;;;2.31;63.34;99691.22;2080210;28;20307;-67
2022/04/04 05:22:36;;;;;;;3.57;1.60;;;;;;;2.33;63.27;99677.59;2079990;28;20300;-67
2022/04/04 05:23:39;;;;;;;3.40;2.03;;;;;;;2.48;63.40;99685.56;2071804;28;20289;-67
2022/04/04 05:24:46;;;;;;;2.33;1.50;;;;;;;2.72;62.90;99685.72;2077860;28;20296;-68
2022/04/04 05:25:49;;;;;;;5.07;1.40;;;;;;;2.64;62.88;99687.09;2092111;28;20384;-67
2022/04/04 05:26:52;;;;;;;2.17;1.50;;;;;;;2.66;63.10;99684.94;2095372;28;20286;-67
2022/04/04 05:28:00;;;;;;;1.97;1.10;;;;;;;2.42;63.49;99689.31;2079384;28;20299;-67